createdAt,value
2022-11-28T00:01:19.466Z,7.10
2022-11-28T00:03:45.876Z,5.72
2022-11-28T00:06:12.376Z,7.63
2022-11-28T00:08:38.844Z,5.45
2022-11-28T00:11:06.248Z,5.93
2022-11-28T00:13:32.805Z,5.28
2022-11-28T00:16:00.044Z,5.80
2022-11-28T00:18:27.150Z,5.95
2022-11-28T00:20:58.880Z,5.45
2022-11-28T00:23:25.189Z,5.63
2022-11-28T00:25:58.481Z,6.82
2022-11-28T00:28:24.861Z,6.00
2022-11-28T00:30:51.151Z,5.68
2022-11-28T00:33:17.505Z,6.63
2022-11-28T00:35:43.836Z,5.70
2022-11-28T00:38:10.131Z,7.18
2022-11-28T00:40:36.427Z,5.38
2022-11-28T00:43:04.207Z,5.90
2022-11-28T00:45:30.557Z,6.13
2022-11-28T00:47:56.935Z,5.68
2022-11-28T00:50:23.482Z,6.32
2022-11-28T00:52:50.315Z,6.18
2022-11-28T00:55:16.656Z,6.00
2022-11-28T00:57:43.019Z,5.78
2022-11-28T01:00:09.543Z,6.25
2022-11-28T01:02:35.949Z,6.38
2022-11-28T01:05:02.358Z,5.53
2022-11-28T01:07:28.845Z,6.82
2022-11-28T01:09:55.935Z,6.35
2022-11-28T01:12:22.404Z,5.65
2022-11-28T01:14:48.700Z,5.90
2022-11-28T01:17:15.079Z,5.90
2022-11-28T01:19:41.366Z,4.97
2022-11-28T01:22:07.756Z,4.90
2022-11-28T01:24:34.112Z,5.95
2022-11-28T01:27:00.524Z,4.13
2022-11-28T01:29:26.899Z,5.05
2022-11-28T01:31:53.312Z,4.32
2022-11-28T01:34:19.717Z,3.13
2022-11-28T01:36:46.057Z,3.53
2022-11-28T01:39:12.479Z,4.53
2022-11-28T01:41:40.448Z,3.30
2022-11-28T01:44:12.940Z,4.07
2022-11-28T01:46:39.336Z,4.68
2022-11-28T01:49:09.186Z,4.00
2022-11-28T01:51:35.992Z,3.72
2022-11-28T01:54:02.674Z,4.10
2022-11-28T01:56:31.863Z,3.45
2022-11-28T01:59:02.433Z,3.35
2022-11-28T02:01:29.028Z,4.40
2022-11-28T02:03:57.162Z,4.93
2022-11-28T02:06:24.315Z,6.45
2022-11-28T02:08:52.395Z,4.53
2022-11-28T02:11:27.649Z,5.10
2022-11-28T02:14:12.592Z,5.22
2022-11-28T02:17:05.038Z,4.32
2022-11-28T02:19:50.341Z,5.72
2022-11-28T02:22:28.788Z,5.28
2022-11-28T02:25:13.720Z,3.67
2022-11-28T02:27:40.017Z,4.65
2022-11-28T02:30:12.598Z,4.03
2022-11-28T02:32:57.049Z,4.22
2022-11-28T02:35:29.011Z,3.88
2022-11-28T02:38:13.396Z,4.22
2022-11-28T02:40:39.829Z,3.90
2022-11-28T02:43:14.107Z,3.40
2022-11-28T02:45:59.034Z,3.30
2022-11-28T02:48:44.223Z,4.18
2022-11-28T02:51:14.298Z,3.70
2022-11-28T02:53:41.587Z,3.33
2022-11-28T02:56:09.775Z,3.65
2022-11-28T02:58:36.229Z,3.75
2022-11-28T03:01:03.459Z,4.20
2022-11-28T03:03:36.055Z,4.70
2022-11-28T03:06:05.484Z,5.00
2022-11-28T03:08:34.833Z,4.05
2022-11-28T03:11:27.219Z,4.80
2022-11-28T03:13:57.301Z,4.47
2022-11-28T03:16:59.304Z,4.80
2022-11-28T03:19:30.053Z,5.00
2022-11-28T03:22:05.609Z,4.80
2022-11-28T03:24:37.978Z,5.65
2022-11-28T03:27:12.383Z,5.47
2022-11-28T03:29:43.064Z,4.90
2022-11-28T03:32:22.847Z,5.30
2022-11-28T03:34:52.269Z,5.72
2022-11-28T03:37:21.629Z,6.70
2022-11-28T03:39:50.328Z,6.22
2022-11-28T03:42:22.057Z,7.07
2022-11-28T03:44:51.169Z,6.40
2022-11-28T03:47:17.853Z,9.20
2022-11-28T03:49:50.337Z,8.07
2022-11-28T03:52:21.740Z,7.43
2022-11-28T03:55:00.809Z,7.85
2022-11-28T03:57:35.117Z,7.40
2022-11-28T04:00:07.289Z,7.95
2022-11-28T04:02:39.894Z,7.72
2022-11-28T04:05:38.870Z,6.93
2022-11-28T04:08:17.070Z,7.00
2022-11-28T04:10:49.495Z,9.70
2022-11-28T04:13:15.913Z,7.30
2022-11-28T04:15:54.556Z,8.65
2022-11-28T04:18:27.078Z,9.15
2022-11-28T04:21:03.670Z,9.82
2022-11-28T04:23:30.730Z,8.10
2022-11-28T04:26:01.679Z,7.80
2022-11-28T04:28:29.844Z,7.15
2022-11-28T04:30:57.532Z,8.63
2022-11-28T04:33:25.588Z,7.97
2022-11-28T04:35:53.138Z,7.57
2022-11-28T04:38:20.960Z,8.38
2022-11-28T04:40:49.486Z,9.48
2022-11-28T04:43:21.158Z,7.18
2022-11-28T04:45:53.152Z,7.55
2022-11-28T04:48:19.586Z,7.97
2022-11-28T04:50:45.894Z,8.43
2022-11-28T04:53:35.472Z,7.68
2022-11-28T04:56:07.780Z,8.00
2022-11-28T04:58:35.572Z,7.07
2022-11-28T05:01:04.461Z,8.25
2022-11-28T05:03:31.305Z,6.70
2022-11-28T05:05:57.642Z,8.75
2022-11-28T05:08:23.978Z,8.90
2022-11-28T05:10:50.301Z,8.05
2022-11-28T05:13:16.805Z,10.10
2022-11-28T05:15:43.316Z,8.93
2022-11-28T05:18:09.734Z,10.90
2022-11-28T05:20:36.943Z,10.32
2022-11-28T05:23:03.348Z,10.52
2022-11-28T05:25:29.714Z,11.05
2022-11-28T05:27:56.128Z,10.63
2022-11-28T05:30:22.434Z,12.80
2022-11-28T05:32:48.722Z,14.88
2022-11-28T05:35:15.123Z,13.55
2022-11-28T05:37:41.451Z,12.73
2022-11-28T05:40:08.101Z,12.73
2022-11-28T05:42:35.150Z,13.90
2022-11-28T05:45:01.753Z,15.50
2022-11-28T05:47:30.734Z,14.57
2022-11-28T05:49:57.146Z,17.20
2022-11-28T05:52:23.454Z,16.85
2022-11-28T05:54:49.795Z,17.10
2022-11-28T05:57:16.134Z,18.27
2022-11-28T05:59:42.910Z,20.33
2022-11-28T06:02:09.395Z,20.50
2022-11-28T06:04:36.128Z,16.70
2022-11-28T06:07:02.549Z,19.88
2022-11-28T06:09:28.926Z,19.13
2022-11-28T06:11:55.261Z,20.50
2022-11-28T06:14:21.660Z,22.70
2022-11-28T06:16:48.053Z,21.70
2022-11-28T06:19:14.508Z,20.35
2022-11-28T06:21:41.072Z,23.65
2022-11-28T06:24:07.574Z,19.35
2022-11-28T06:26:33.898Z,20.88
2022-11-28T06:29:00.236Z,19.08
2022-11-28T06:31:28.549Z,20.50
2022-11-28T06:33:55.200Z,23.63
2022-11-28T06:36:21.715Z,25.10
2022-11-28T06:38:48.114Z,22.38
2022-11-28T06:41:17.071Z,22.15
2022-11-28T06:43:43.636Z,23.42
2022-11-28T06:46:16.268Z,23.92
2022-11-28T06:48:43.281Z,22.95
2022-11-28T06:51:10.893Z,26.23
2022-11-28T06:53:37.201Z,25.02
2022-11-28T06:56:07.601Z,23.30
2022-11-28T06:58:34.021Z,23.90
2022-11-28T07:01:26.747Z,25.83
2022-11-28T07:03:54.491Z,25.77
2022-11-28T07:06:22.041Z,24.58
2022-11-28T07:08:48.627Z,25.05
2022-11-28T07:11:19.363Z,23.92
2022-11-28T07:13:45.948Z,24.70
2022-11-28T07:16:16.895Z,23.02
2022-11-28T07:18:43.891Z,21.50
2022-11-28T07:21:10.885Z,26.25
2022-11-28T07:23:37.342Z,22.42
2022-11-28T07:26:04.242Z,27.17
2022-11-28T07:28:31.407Z,25.27
2022-11-28T07:30:59.153Z,23.00
2022-11-28T07:33:25.479Z,25.38
2022-11-28T07:35:51.772Z,25.10
2022-11-28T07:38:18.108Z,29.58
2022-11-28T07:40:44.569Z,25.90
2022-11-28T07:43:11.002Z,27.83
2022-11-28T07:45:59.444Z,28.42
2022-11-28T07:48:26.670Z,27.27
2022-11-28T07:50:53.027Z,24.50
2022-11-28T07:53:19.359Z,30.27
2022-11-28T07:55:45.657Z,26.63
2022-11-28T07:58:12.009Z,30.13
2022-11-28T08:00:38.297Z,29.00
2022-11-28T08:03:04.939Z,29.50
2022-11-28T08:05:31.387Z,27.17
2022-11-28T08:07:57.741Z,32.10
2022-11-28T08:10:24.147Z,34.35
2022-11-28T08:12:50.937Z,29.70
2022-11-28T08:15:17.295Z,35.15
2022-11-28T08:17:43.589Z,31.70
2022-11-28T08:20:10.144Z,30.20
2022-11-28T08:22:36.564Z,31.25
2022-11-28T08:25:02.887Z,31.25
2022-11-28T08:27:29.159Z,34.45
2022-11-28T08:29:55.456Z,34.33
2022-11-28T08:32:21.813Z,33.05
2022-11-28T08:34:48.119Z,37.30
2022-11-28T08:37:14.435Z,30.17
2022-11-28T08:39:41.010Z,34.25
2022-11-28T08:42:07.618Z,30.88
2022-11-28T08:44:33.955Z,37.97
2022-11-28T08:47:00.440Z,34.47
2022-11-28T08:49:26.775Z,31.83
2022-11-28T08:51:53.328Z,34.35
2022-11-28T08:54:20.806Z,31.60
2022-11-28T08:56:47.671Z,30.05
2022-11-28T08:59:13.953Z,32.80
2022-11-28T09:01:40.317Z,32.60
2022-11-28T09:04:06.851Z,28.17
2022-11-28T09:06:33.207Z,31.52
2022-11-28T09:08:59.557Z,27.13
2022-11-28T09:11:26.109Z,30.27
2022-11-28T09:13:52.432Z,25.50
2022-11-28T09:16:19.049Z,30.42
2022-11-28T09:18:45.493Z,30.77
2022-11-28T09:21:12.454Z,28.75
2022-11-28T09:23:39.597Z,27.58
2022-11-28T09:26:09.672Z,29.73
2022-11-28T09:28:35.989Z,20.48
2022-11-28T09:31:03.410Z,27.67
2022-11-28T09:33:29.894Z,23.77
2022-11-28T09:35:56.485Z,28.23
2022-11-28T09:38:22.962Z,27.40
2022-11-28T09:40:49.423Z,28.73
2022-11-28T09:43:18.513Z,24.63
2022-11-28T09:45:45.885Z,23.85
2022-11-28T09:48:24.621Z,20.60
2022-11-28T09:50:52.799Z,19.40
2022-11-28T09:53:28.738Z,20.02
2022-11-28T09:56:08.827Z,21.90
2022-11-28T09:58:43.361Z,17.02
2022-11-28T10:01:21.709Z,15.95
2022-11-28T10:03:48.036Z,15.75
2022-11-28T10:06:14.332Z,17.83
2022-11-28T10:09:00.906Z,15.85
2022-11-28T10:11:34.334Z,18.05
2022-11-28T10:14:15.306Z,13.75
2022-11-28T10:16:41.907Z,19.55
2022-11-28T10:19:25.729Z,15.57
2022-11-28T10:22:00.592Z,17.30
2022-11-28T10:24:35.353Z,17.08
2022-11-28T10:27:03.994Z,19.48
2022-11-28T10:29:39.385Z,16.23
2022-11-28T10:32:06.210Z,22.45
2022-11-28T10:34:38.041Z,20.88
2022-11-28T10:37:06.685Z,23.38
2022-11-28T10:39:43.639Z,20.58
2022-11-28T10:42:24.491Z,18.50
2022-11-28T10:45:00.206Z,18.73
2022-11-28T10:47:49.659Z,25.77
2022-11-28T10:50:20.137Z,23.08
2022-11-28T10:53:12.978Z,21.42
2022-11-28T10:55:39.299Z,22.92
2022-11-28T10:58:05.731Z,24.00
2022-11-28T11:00:32.587Z,23.73
2022-11-28T11:03:02.292Z,23.33
2022-11-28T11:05:28.596Z,22.75
2022-11-28T11:07:56.593Z,21.55
2022-11-28T11:10:25.340Z,21.85
2022-11-28T11:12:54.808Z,17.73
2022-11-28T11:15:31.962Z,23.85
2022-11-28T11:18:01.050Z,21.13
2022-11-28T11:20:27.392Z,27.33
2022-11-28T11:22:55.734Z,25.08
2022-11-28T11:25:22.630Z,27.70
2022-11-28T11:27:50.357Z,25.73
2022-11-28T11:30:27.124Z,22.17
2022-11-28T11:32:54.246Z,19.40
2022-11-28T11:35:22.416Z,22.83
2022-11-28T11:37:48.734Z,23.58
2022-11-28T11:40:33.045Z,22.63
2022-11-28T11:43:00.167Z,21.98
2022-11-28T11:45:31.069Z,22.63
2022-11-28T11:47:58.200Z,17.92
2022-11-28T11:50:25.603Z,23.00
2022-11-28T11:53:01.129Z,22.60
2022-11-28T11:55:28.939Z,21.10
2022-11-28T11:57:55.833Z,20.67
2022-11-28T12:00:23.873Z,20.73
2022-11-28T12:02:56.659Z,27.38
2022-11-28T12:05:24.933Z,17.85
2022-11-28T12:07:57.240Z,20.58
2022-11-28T12:10:28.349Z,22.55
2022-11-28T12:12:55.092Z,19.42
2022-11-28T12:15:32.450Z,20.15
2022-11-28T12:17:59.260Z,22.75
2022-11-28T12:20:25.877Z,23.52
2022-11-28T12:23:02.202Z,24.17
2022-11-28T12:25:31.631Z,20.90
2022-11-28T12:27:58.015Z,22.67
2022-11-28T12:30:24.314Z,20.13
2022-11-28T12:33:09.576Z,22.98
2022-11-28T12:35:38.899Z,14.75
2022-11-28T12:38:14.375Z,21.15
2022-11-28T12:40:43.785Z,29.13
2022-11-28T12:43:30.242Z,28.42
2022-11-28T12:46:02.334Z,19.88
2022-11-28T12:48:28.664Z,21.95
2022-11-28T12:51:00.447Z,25.80
2022-11-28T12:53:37.124Z,22.17
2022-11-28T12:56:03.500Z,20.45
2022-11-28T12:58:33.587Z,23.35
2022-11-28T13:01:19.941Z,18.58
2022-11-28T13:04:02.376Z,20.13
2022-11-28T13:06:47.190Z,20.33
2022-11-28T13:09:16.680Z,21.00
2022-11-28T13:11:45.793Z,19.63
2022-11-28T13:14:24.280Z,21.95
2022-11-28T13:16:52.758Z,20.75
2022-11-28T13:19:21.867Z,16.73
2022-11-28T13:22:11.587Z,27.77
2022-11-28T13:24:41.320Z,20.10
2022-11-28T13:27:27.515Z,26.05
2022-11-28T13:30:06.209Z,29.63
2022-11-28T13:32:38.568Z,17.38
2022-11-28T13:35:05.228Z,21.85
2022-11-28T13:40:32.065Z,23.48
2022-11-28T13:43:07.123Z,20.00
2022-11-28T13:45:35.879Z,21.13
2022-11-28T13:48:32.370Z,24.13
2022-11-28T13:51:18.769Z,22.70
2022-11-28T13:53:47.596Z,16.48
2022-11-28T13:56:16.766Z,19.05
2022-11-28T13:58:47.791Z,22.17
2022-11-28T14:01:18.840Z,24.55
2022-11-28T14:04:01.297Z,25.25
2022-11-28T14:06:30.593Z,21.50
2022-11-28T14:09:06.136Z,18.33
2022-11-28T14:11:41.641Z,20.23
2022-11-28T14:14:16.885Z,22.75
2022-11-28T14:17:01.339Z,23.13
2022-11-28T14:19:46.431Z,23.88
2022-11-28T14:22:18.985Z,19.00
2022-11-28T14:24:51.783Z,16.35
2022-11-28T14:27:22.807Z,20.10
2022-11-28T14:29:51.521Z,29.45
2022-11-28T14:32:43.959Z,23.05
2022-11-28T14:35:17.550Z,16.80
2022-11-28T14:37:55.080Z,27.38
2022-11-28T14:40:40.247Z,21.35
2022-11-28T14:43:25.407Z,23.30
2022-11-28T14:45:52.475Z,16.85
2022-11-28T14:48:21.836Z,19.92
2022-11-28T14:50:57.584Z,20.92
2022-11-28T14:53:33.427Z,20.35
2022-11-28T14:56:14.887Z,28.48
2022-11-28T14:58:46.521Z,19.67
2022-11-28T15:01:17.428Z,18.27
2022-11-28T15:03:53.618Z,16.67
2022-11-28T15:06:21.697Z,24.58
2022-11-28T15:09:02.660Z,23.65
2022-11-28T15:11:46.935Z,26.08
2022-11-28T15:14:16.087Z,21.45
2022-11-28T15:16:49.698Z,24.77
2022-11-28T15:19:20.062Z,23.33
2022-11-28T15:21:48.463Z,14.93
2022-11-28T15:24:27.295Z,20.55
2022-11-28T15:26:57.634Z,19.45
2022-11-28T15:29:27.997Z,24.52
2022-11-28T15:31:55.692Z,22.30
2022-11-28T15:34:25.585Z,31.38
2022-11-28T15:36:53.031Z,29.98
2022-11-28T15:39:42.075Z,24.13
2022-11-28T15:42:18.106Z,21.85
2022-11-28T15:44:44.925Z,18.27
2022-11-28T15:47:21.443Z,14.63
2022-11-28T15:50:06.684Z,17.55
2022-11-28T15:52:33.071Z,21.17
2022-11-28T15:54:59.545Z,18.92
2022-11-28T15:57:28.406Z,17.02
2022-11-28T15:59:56.000Z,21.52
2022-11-28T16:02:26.458Z,25.17
2022-11-28T16:04:54.934Z,20.20
2022-11-28T16:07:21.504Z,17.05
2022-11-28T16:09:56.538Z,20.33
2022-11-28T16:12:23.328Z,13.20
2022-11-28T16:14:51.427Z,14.20
2022-11-28T16:17:25.217Z,21.52
2022-11-28T16:19:52.667Z,16.88
2022-11-28T16:22:19.872Z,18.35
2022-11-28T16:24:50.293Z,24.50
2022-11-28T16:27:25.708Z,20.63
2022-11-28T16:29:52.114Z,22.45
2022-11-28T16:32:23.394Z,22.65
2022-11-28T16:34:50.711Z,18.00
2022-11-28T16:37:20.023Z,18.05
2022-11-28T16:39:46.600Z,18.40
2022-11-28T16:42:17.118Z,19.67
2022-11-28T16:44:43.794Z,21.70
2022-11-28T16:47:39.830Z,19.73
2022-11-28T16:50:15.400Z,17.35
2022-11-28T16:52:43.666Z,23.35
2022-11-28T16:55:28.597Z,25.70
2022-11-28T16:58:00.135Z,21.38
2022-11-28T17:00:27.268Z,15.70
2022-11-28T17:02:53.752Z,29.88
2022-11-28T17:05:20.446Z,12.70
2022-11-28T17:07:46.894Z,25.98
2022-11-28T17:10:13.378Z,22.38
2022-11-28T17:12:40.033Z,22.98
2022-11-28T17:15:08.555Z,27.17
2022-11-28T17:17:35.761Z,32.47
2022-11-28T17:20:03.139Z,29.98
2022-11-28T17:22:38.886Z,34.22
2022-11-28T17:25:07.717Z,33.28
2022-11-28T17:27:34.012Z,23.65
2022-11-28T17:30:00.360Z,26.20
2022-11-28T17:32:26.755Z,30.50
2022-11-28T17:34:53.146Z,33.08
2022-11-28T17:37:19.572Z,28.77
2022-11-28T17:40:04.553Z,28.30
2022-11-28T17:42:31.625Z,24.23
2022-11-28T17:44:57.988Z,27.85
2022-11-28T17:47:24.481Z,39.67
2022-11-28T17:49:51.328Z,33.60
2022-11-28T17:52:19.934Z,31.23
2022-11-28T17:54:46.317Z,41.53
2022-11-28T17:57:12.851Z,44.35
2022-11-28T17:59:39.151Z,37.53
2022-11-28T18:02:05.574Z,40.40
2022-11-28T18:04:34.087Z,44.05
2022-11-28T18:07:01.634Z,41.10
2022-11-28T18:09:29.218Z,52.08
2022-11-28T18:11:55.530Z,46.72
2022-11-28T18:14:21.899Z,48.40
2022-11-28T18:16:48.335Z,45.08
2022-11-28T18:19:14.792Z,45.58
2022-11-28T18:21:41.136Z,44.17
2022-11-28T18:24:07.721Z,41.63
2022-11-28T18:26:34.739Z,47.05
2022-11-28T18:29:01.174Z,46.55
2022-11-28T18:31:28.497Z,44.55
2022-11-28T18:34:01.459Z,44.85
2022-11-28T18:36:29.051Z,50.15
2022-11-28T18:39:05.231Z,46.35
2022-11-28T18:41:31.671Z,50.58
2022-11-28T18:44:02.189Z,48.90
2022-11-28T18:46:29.167Z,46.08
2022-11-28T18:48:55.664Z,50.40
2022-11-28T18:51:26.605Z,47.55
2022-11-28T18:53:53.708Z,46.58
2022-11-28T18:56:20.522Z,50.00
2022-11-28T18:58:48.112Z,51.45
2022-11-28T19:01:20.181Z,55.67
2022-11-28T19:03:51.157Z,50.03
2022-11-28T19:06:17.633Z,50.97
2022-11-28T19:08:44.067Z,54.00
2022-11-28T19:11:13.186Z,47.90
2022-11-28T19:13:40.310Z,44.92
2022-11-28T19:16:07.706Z,47.92
2022-11-28T19:18:35.064Z,45.00
2022-11-28T19:21:04.830Z,50.25
2022-11-28T19:23:31.167Z,44.13
2022-11-28T19:25:57.432Z,50.20
2022-11-28T19:28:23.748Z,51.13
2022-11-28T19:30:50.086Z,46.97
2022-11-28T19:33:16.385Z,46.75
2022-11-28T19:35:42.767Z,52.45
2022-11-28T19:38:09.082Z,50.35
2022-11-28T19:40:35.638Z,22.20
2022-11-28T19:43:01.968Z,29.73
2022-11-28T19:45:28.497Z,27.40
2022-11-28T19:47:54.839Z,32.63
2022-11-28T19:50:21.174Z,43.85
2022-11-28T19:52:47.778Z,44.17
2022-11-28T19:55:14.099Z,20.50
2022-11-28T19:57:40.759Z,45.72
2022-11-28T20:00:07.546Z,46.42
2022-11-28T20:02:33.954Z,47.17
2022-11-28T20:05:00.363Z,43.88
2022-11-28T20:07:27.545Z,48.55
2022-11-28T20:09:53.906Z,40.03
2022-11-28T20:12:20.294Z,36.83
2022-11-28T20:14:46.604Z,46.35
2022-11-28T20:17:12.931Z,45.53
2022-11-28T20:19:39.273Z,44.13
2022-11-28T20:22:05.614Z,43.28
2022-11-28T20:24:31.971Z,41.08
2022-11-28T20:26:58.305Z,44.22
2022-11-28T20:29:27.943Z,44.78
2022-11-28T20:31:54.489Z,38.83
2022-11-28T20:34:20.910Z,40.00
2022-11-28T20:36:50.515Z,36.97
2022-11-28T20:39:16.826Z,36.80
2022-11-28T20:41:43.381Z,40.70
2022-11-28T20:44:10.039Z,44.20
2022-11-28T20:46:36.433Z,37.22
2022-11-28T20:49:06.141Z,41.00
2022-11-28T20:51:33.535Z,32.25
2022-11-28T20:54:00.520Z,32.28
2022-11-28T20:56:29.632Z,33.95
2022-11-28T20:58:57.833Z,36.60
2022-11-28T21:01:25.340Z,34.33
2022-11-28T21:03:52.089Z,32.67
2022-11-28T21:06:19.134Z,35.08
2022-11-28T21:08:45.619Z,33.30
2022-11-28T21:11:30.491Z,33.13
2022-11-28T21:14:00.427Z,34.80
2022-11-28T21:16:28.487Z,33.08
2022-11-28T21:18:58.951Z,30.58
2022-11-28T21:21:26.545Z,32.30
2022-11-28T21:23:56.419Z,36.22
2022-11-28T21:26:28.805Z,31.10
2022-11-28T21:28:57.432Z,33.78
2022-11-28T21:31:25.364Z,32.03
2022-11-28T21:33:52.657Z,31.95
2022-11-28T21:36:19.318Z,30.60
2022-11-28T21:38:49.737Z,36.88
2022-11-28T21:41:16.175Z,31.50
2022-11-28T21:43:42.651Z,31.35
2022-11-28T21:46:10.103Z,26.88
2022-11-28T21:48:36.717Z,29.50
2022-11-28T21:51:03.740Z,27.42
2022-11-28T21:53:31.554Z,32.72
2022-11-28T21:56:01.269Z,32.15
2022-11-28T21:58:28.407Z,25.80
2022-11-28T22:00:58.871Z,29.50
2022-11-28T22:03:25.663Z,31.92
2022-11-28T22:05:53.081Z,28.65
2022-11-28T22:08:20.186Z,27.88
2022-11-28T22:10:46.633Z,30.63
2022-11-28T22:13:13.053Z,29.02
2022-11-28T22:15:40.853Z,31.65
2022-11-28T22:18:07.181Z,26.20
2022-11-28T22:20:33.845Z,31.80
2022-11-28T22:23:02.026Z,28.42
2022-11-28T22:25:28.449Z,21.55
2022-11-28T22:27:54.943Z,21.50
2022-11-28T22:30:21.513Z,22.90
2022-11-28T22:32:47.810Z,22.95
2022-11-28T22:35:14.174Z,24.65
2022-11-28T22:37:40.642Z,22.00
2022-11-28T22:40:07.311Z,19.70
2022-11-28T22:42:33.625Z,19.65
2022-11-28T22:45:00.019Z,18.73
2022-11-28T22:47:26.386Z,21.45
2022-11-28T22:49:52.767Z,20.88
2022-11-28T22:52:19.133Z,19.00
2022-11-28T22:54:45.557Z,17.65
2022-11-28T22:57:12.038Z,15.95
2022-11-28T22:59:38.660Z,14.20
2022-11-28T23:02:05.312Z,12.45
2022-11-28T23:04:31.695Z,14.23
2022-11-28T23:06:58.021Z,20.25
2022-11-28T23:09:24.319Z,13.15
2022-11-28T23:11:50.695Z,11.85
2022-11-28T23:14:17.065Z,9.95
2022-11-28T23:16:43.921Z,8.48
2022-11-28T23:19:12.264Z,8.00
2022-11-28T23:21:39.375Z,6.40
2022-11-28T23:24:06.588Z,9.38
2022-11-28T23:26:33.578Z,7.03
2022-11-28T23:29:00.639Z,10.00
2022-11-28T23:31:29.190Z,10.93
2022-11-28T23:33:56.547Z,7.22
2022-11-28T23:36:27.635Z,7.82
2022-11-28T23:38:55.038Z,8.25
2022-11-28T23:41:21.359Z,9.95
2022-11-28T23:43:47.800Z,9.23
2022-11-28T23:46:14.871Z,9.23
2022-11-28T23:48:42.592Z,12.55
2022-11-28T23:51:09.146Z,6.40
2022-11-28T23:53:36.230Z,6.78
2022-11-28T23:56:03.852Z,7.22
2022-11-28T23:58:30.152Z,7.45
